sensor_id;sensor_type;location;lat;lon;timestamp;P1;durP1;ratioP1;P2;durP2;ratioP2
79543;SDS011;68994;47.176;7.534;2023-04-22T00:00:33;16.95;;;9.38;;
79543;SDS011;68994;47.176;7.534;2023-04-22T00:03:01;13.82;;;11.07;;
79543;SDS011;68994;47.176;7.534;2023-04-22T00:07:57;14.68;;;10.68;;
79543;SDS011;68994;47.176;7.534;2023-04-22T00:10:23;17.13;;;12.23;;
79543;SDS011;68994;47.176;7.534;2023-04-22T00:12:50;16.20;;;11.48;;
79543;SDS011;68994;47.176;7.534;2023-04-22T00:15:17;16.92;;;10.43;;
79543;SDS011;68994;47.176;7.534;2023-04-22T00:17:45;16.15;;;10.75;;
79543;SDS011;68994;47.176;7.534;2023-04-22T00:20:12;14.68;;;10.60;;
79543;SDS011;68994;47.176;7.534;2023-04-22T00:22:39;17.52;;;11.43;;
79543;SDS011;68994;47.176;7.534;2023-04-22T00:25:07;16.48;;;9.80;;
79543;SDS011;68994;47.176;7.534;2023-04-22T00:27:34;16.80;;;11.90;;
79543;SDS011;68994;47.176;7.534;2023-04-22T00:30:01;16.23;;;12.65;;
79543;SDS011;68994;47.176;7.534;2023-04-22T00:32:27;13.77;;;8.88;;
79543;SDS011;68994;47.176;7.534;2023-04-22T00:34:54;14.50;;;9.70;;
79543;SDS011;68994;47.176;7.534;2023-04-22T00:37:21;16.27;;;12.38;;
79543;SDS011;68994;47.176;7.534;2023-04-22T00:39:48;13.82;;;9.82;;
79543;SDS011;68994;47.176;7.534;2023-04-22T00:42:16;14.88;;;9.93;;
79543;SDS011;68994;47.176;7.534;2023-04-22T00:44:42;15.82;;;9.73;;
79543;SDS011;68994;47.176;7.534;2023-04-22T00:47:12;15.82;;;10.90;;
79543;SDS011;68994;47.176;7.534;2023-04-22T00:49:39;17.60;;;13.27;;
79543;SDS011;68994;47.176;7.534;2023-04-22T00:52:05;16.15;;;10.98;;
79543;SDS011;68994;47.176;7.534;2023-04-22T00:54:32;17.55;;;14.20;;
79543;SDS011;68994;47.176;7.534;2023-04-22T00:57:00;17.02;;;11.07;;
79543;SDS011;68994;47.176;7.534;2023-04-22T00:59:29;15.65;;;11.75;;
79543;SDS011;68994;47.176;7.534;2023-04-22T01:01:55;14.82;;;10.05;;
79543;SDS011;68994;47.176;7.534;2023-04-22T01:04:23;16.70;;;12.35;;
79543;SDS011;68994;47.176;7.534;2023-04-22T01:06:50;16.85;;;10.55;;
79543;SDS011;68994;47.176;7.534;2023-04-22T01:09:17;15.77;;;10.48;;
79543;SDS011;68994;47.176;7.534;2023-04-22T01:11:45;15.00;;;10.98;;
79543;SDS011;68994;47.176;7.534;2023-04-22T01:14:11;14.38;;;9.63;;
79543;SDS011;68994;47.176;7.534;2023-04-22T01:16:40;16.25;;;10.70;;
79543;SDS011;68994;47.176;7.534;2023-04-22T01:19:08;13.77;;;9.65;;
79543;SDS011;68994;47.176;7.534;2023-04-22T01:21:36;11.57;;;8.23;;
79543;SDS011;68994;47.176;7.534;2023-04-22T01:24:06;14.45;;;11.38;;
79543;SDS011;68994;47.176;7.534;2023-04-22T01:26:33;12.90;;;10.32;;
79543;SDS011;68994;47.176;7.534;2023-04-22T01:29:00;14.70;;;10.68;;
79543;SDS011;68994;47.176;7.534;2023-04-22T01:31:27;15.88;;;9.77;;
79543;SDS011;68994;47.176;7.534;2023-04-22T01:33:54;16.60;;;11.60;;
79543;SDS011;68994;47.176;7.534;2023-04-22T01:36:21;13.23;;;8.95;;
79543;SDS011;68994;47.176;7.534;2023-04-22T01:38:47;11.75;;;8.57;;
79543;SDS011;68994;47.176;7.534;2023-04-22T01:41:16;13.13;;;9.38;;
79543;SDS011;68994;47.176;7.534;2023-04-22T01:43:43;14.38;;;10.57;;
79543;SDS011;68994;47.176;7.534;2023-04-22T01:46:09;15.43;;;10.05;;
79543;SDS011;68994;47.176;7.534;2023-04-22T01:48:36;19.33;;;11.25;;
79543;SDS011;68994;47.176;7.534;2023-04-22T01:51:03;14.25;;;9.27;;
79543;SDS011;68994;47.176;7.534;2023-04-22T01:53:30;15.35;;;9.90;;
79543;SDS011;68994;47.176;7.534;2023-04-22T01:55:56;16.30;;;10.50;;
79543;SDS011;68994;47.176;7.534;2023-04-22T01:58:24;18.23;;;11.35;;
79543;SDS011;68994;47.176;7.534;2023-04-22T02:00:54;17.15;;;10.20;;
79543;SDS011;68994;47.176;7.534;2023-04-22T02:03:20;15.18;;;12.00;;
79543;SDS011;68994;47.176;7.534;2023-04-22T02:05:47;18.42;;;11.18;;
79543;SDS011;68994;47.176;7.534;2023-04-22T02:08:14;19.65;;;13.80;;
79543;SDS011;68994;47.176;7.534;2023-04-22T02:10:40;16.75;;;11.52;;
79543;SDS011;68994;47.176;7.534;2023-04-22T02:13:07;20.92;;;12.68;;
79543;SDS011;68994;47.176;7.534;2023-04-22T02:15:35;16.55;;;11.90;;
79543;SDS011;68994;47.176;7.534;2023-04-22T02:18:03;16.75;;;9.63;;
79543;SDS011;68994;47.176;7.534;2023-04-22T02:20:30;18.40;;;12.48;;
79543;SDS011;68994;47.176;7.534;2023-04-22T02:22:56;18.00;;;11.00;;
79543;SDS011;68994;47.176;7.534;2023-04-22T02:25:23;20.42;;;14.57;;
79543;SDS011;68994;47.176;7.534;2023-04-22T02:27:51;16.42;;;11.65;;
79543;SDS011;68994;47.176;7.534;2023-04-22T02:30:17;17.60;;;11.55;;
79543;SDS011;68994;47.176;7.534;2023-04-22T02:32:45;16.67;;;12.75;;
79543;SDS011;68994;47.176;7.534;2023-04-22T02:35:12;19.27;;;11.88;;
79543;SDS011;68994;47.176;7.534;2023-04-22T02:37:38;16.10;;;12.75;;
79543;SDS011;68994;47.176;7.534;2023-04-22T02:40:05;16.17;;;10.88;;
79543;SDS011;68994;47.176;7.534;2023-04-22T02:42:33;15.40;;;10.43;;
79543;SDS011;68994;47.176;7.534;2023-04-22T02:45:00;21.10;;;13.70;;
79543;SDS011;68994;47.176;7.534;2023-04-22T02:47:27;20.17;;;14.13;;
79543;SDS011;68994;47.176;7.534;2023-04-22T02:49:55;17.67;;;10.38;;
79543;SDS011;68994;47.176;7.534;2023-04-22T02:52:21;19.80;;;12.73;;
79543;SDS011;68994;47.176;7.534;2023-04-22T02:54:48;18.42;;;12.02;;
79543;SDS011;68994;47.176;7.534;2023-04-22T02:57:14;17.10;;;11.85;;
79543;SDS011;68994;47.176;7.534;2023-04-22T02:59:41;16.10;;;12.38;;
79543;SDS011;68994;47.176;7.534;2023-04-22T03:02:07;18.27;;;12.40;;
79543;SDS011;68994;47.176;7.534;2023-04-22T03:04:35;17.73;;;11.75;;
79543;SDS011;68994;47.176;7.534;2023-04-22T03:07:03;23.33;;;15.43;;
79543;SDS011;68994;47.176;7.534;2023-04-22T03:09:30;21.88;;;13.82;;
79543;SDS011;68994;47.176;7.534;2023-04-22T03:11:56;25.55;;;13.55;;
79543;SDS011;68994;47.176;7.534;2023-04-22T03:14:23;27.20;;;15.68;;
79543;SDS011;68994;47.176;7.534;2023-04-22T03:16:49;34.13;;;16.30;;
79543;SDS011;68994;47.176;7.534;2023-04-22T03:19:17;32.40;;;18.42;;
79543;SDS011;68994;47.176;7.534;2023-04-22T03:21:44;49.60;;;17.33;;
79543;SDS011;68994;47.176;7.534;2023-04-22T03:24:12;44.67;;;19.00;;
79543;SDS011;68994;47.176;7.534;2023-04-22T03:26:38;57.22;;;17.02;;
79543;SDS011;68994;47.176;7.534;2023-04-22T03:29:06;24.45;;;13.32;;
79543;SDS011;68994;47.176;7.534;2023-04-22T03:31:32;39.17;;;15.07;;
79543;SDS011;68994;47.176;7.534;2023-04-22T03:33:59;91.00;;;19.65;;
79543;SDS011;68994;47.176;7.534;2023-04-22T03:36:26;48.60;;;16.40;;
79543;SDS011;68994;47.176;7.534;2023-04-22T03:38:52;63.13;;;21.25;;
79543;SDS011;68994;47.176;7.534;2023-04-22T03:41:20;46.20;;;16.65;;
79543;SDS011;68994;47.176;7.534;2023-04-22T03:43:47;66.25;;;16.73;;
79543;SDS011;68994;47.176;7.534;2023-04-22T03:46:14;28.75;;;14.77;;
79543;SDS011;68994;47.176;7.534;2023-04-22T03:48:41;83.28;;;17.50;;
79543;SDS011;68994;47.176;7.534;2023-04-22T03:51:07;40.65;;;13.27;;
79543;SDS011;68994;47.176;7.534;2023-04-22T03:53:34;31.13;;;13.38;;
79543;SDS011;68994;47.176;7.534;2023-04-22T03:56:00;36.03;;;15.15;;
79543;SDS011;68994;47.176;7.534;2023-04-22T03:58:28;37.58;;;14.43;;
79543;SDS011;68994;47.176;7.534;2023-04-22T04:00:55;35.33;;;16.20;;
79543;SDS011;68994;47.176;7.534;2023-04-22T04:03:22;83.32;;;18.42;;
79543;SDS011;68994;47.176;7.534;2023-04-22T04:05:48;124.07;;;24.15;;
79543;SDS011;68994;47.176;7.534;2023-04-22T04:08:15;43.47;;;15.60;;
79543;SDS011;68994;47.176;7.534;2023-04-22T04:10:41;36.03;;;14.80;;
79543;SDS011;68994;47.176;7.534;2023-04-22T04:13:08;105.75;;;21.20;;
79543;SDS011;68994;47.176;7.534;2023-04-22T04:15:36;22.67;;;13.70;;
79543;SDS011;68994;47.176;7.534;2023-04-22T04:18:03;36.42;;;14.43;;
79543;SDS011;68994;47.176;7.534;2023-04-22T04:20:29;63.58;;;20.23;;
79543;SDS011;68994;47.176;7.534;2023-04-22T04:22:56;53.22;;;17.20;;
79543;SDS011;68994;47.176;7.534;2023-04-22T04:25:23;60.78;;;15.88;;
79543;SDS011;68994;47.176;7.534;2023-04-22T04:27:49;56.30;;;15.10;;
79543;SDS011;68994;47.176;7.534;2023-04-22T04:30:16;65.47;;;14.77;;
79543;SDS011;68994;47.176;7.534;2023-04-22T04:32:45;23.05;;;11.80;;
79543;SDS011;68994;47.176;7.534;2023-04-22T04:35:12;46.97;;;15.02;;
79543;SDS011;68994;47.176;7.534;2023-04-22T04:37:39;31.77;;;14.00;;
79543;SDS011;68994;47.176;7.534;2023-04-22T04:40:07;30.30;;;14.88;;
79543;SDS011;68994;47.176;7.534;2023-04-22T04:45:02;26.50;;;13.52;;
79543;SDS011;68994;47.176;7.534;2023-04-22T04:47:30;40.78;;;16.35;;
79543;SDS011;68994;47.176;7.534;2023-04-22T04:49:59;31.05;;;16.10;;
79543;SDS011;68994;47.176;7.534;2023-04-22T04:52:28;40.10;;;18.48;;
79543;SDS011;68994;47.176;7.534;2023-04-22T04:54:55;23.40;;;13.02;;
79543;SDS011;68994;47.176;7.534;2023-04-22T04:57:22;36.60;;;16.27;;
79543;SDS011;68994;47.176;7.534;2023-04-22T04:59:48;65.55;;;19.67;;
79543;SDS011;68994;47.176;7.534;2023-04-22T05:02:15;47.17;;;15.82;;
79543;SDS011;68994;47.176;7.534;2023-04-22T05:04:41;50.75;;;17.67;;
79543;SDS011;68994;47.176;7.534;2023-04-22T05:07:09;67.82;;;18.02;;
79543;SDS011;68994;47.176;7.534;2023-04-22T05:09:36;37.97;;;15.38;;
79543;SDS011;68994;47.176;7.534;2023-04-22T05:12:03;49.40;;;18.05;;
79543;SDS011;68994;47.176;7.534;2023-04-22T05:14:29;54.67;;;17.48;;
79543;SDS011;68994;47.176;7.534;2023-04-22T05:16:56;41.35;;;16.50;;
79543;SDS011;68994;47.176;7.534;2023-04-22T05:19:23;29.73;;;14.23;;
79543;SDS011;68994;47.176;7.534;2023-04-22T05:21:50;26.67;;;16.00;;
79543;SDS011;68994;47.176;7.534;2023-04-22T05:24:18;42.33;;;14.88;;
79543;SDS011;68994;47.176;7.534;2023-04-22T05:26:45;30.75;;;17.00;;
79543;SDS011;68994;47.176;7.534;2023-04-22T05:29:12;25.25;;;15.15;;
79543;SDS011;68994;47.176;7.534;2023-04-22T05:31:38;23.15;;;12.95;;
79543;SDS011;68994;47.176;7.534;2023-04-22T05:34:05;26.63;;;14.20;;
79543;SDS011;68994;47.176;7.534;2023-04-22T05:36:31;33.35;;;15.98;;
79543;SDS011;68994;47.176;7.534;2023-04-22T05:38:58;31.90;;;14.18;;
79543;SDS011;68994;47.176;7.534;2023-04-22T05:41:26;27.05;;;14.15;;
79543;SDS011;68994;47.176;7.534;2023-04-22T05:43:53;18.77;;;11.90;;
79543;SDS011;68994;47.176;7.534;2023-04-22T05:46:19;23.92;;;17.48;;
79543;SDS011;68994;47.176;7.534;2023-04-22T05:48:46;22.58;;;16.35;;
79543;SDS011;68994;47.176;7.534;2023-04-22T05:51:13;23.75;;;14.20;;
79543;SDS011;68994;47.176;7.534;2023-04-22T05:53:39;21.05;;;12.65;;
79543;SDS011;68994;47.176;7.534;2023-04-22T05:56:06;26.30;;;15.07;;
79543;SDS011;68994;47.176;7.534;2023-04-22T05:58:34;27.70;;;15.40;;
79543;SDS011;68994;47.176;7.534;2023-04-22T06:01:01;30.35;;;16.63;;
79543;SDS011;68994;47.176;7.534;2023-04-22T06:03:28;23.33;;;14.75;;
79543;SDS011;68994;47.176;7.534;2023-04-22T06:05:55;23.92;;;15.20;;
79543;SDS011;68994;47.176;7.534;2023-04-22T06:08:22;30.67;;;18.73;;
79543;SDS011;68994;47.176;7.534;2023-04-22T06:10:49;22.77;;;16.17;;
79543;SDS011;68994;47.176;7.534;2023-04-22T06:13:15;25.08;;;15.50;;
79543;SDS011;68994;47.176;7.534;2023-04-22T06:15:43;26.77;;;18.58;;
79543;SDS011;68994;47.176;7.534;2023-04-22T06:18:10;22.88;;;15.13;;
79543;SDS011;68994;47.176;7.534;2023-04-22T06:20:37;23.30;;;14.65;;
79543;SDS011;68994;47.176;7.534;2023-04-22T06:23:04;22.58;;;14.25;;
79543;SDS011;68994;47.176;7.534;2023-04-22T06:25:31;32.55;;;19.42;;
79543;SDS011;68994;47.176;7.534;2023-04-22T06:27:58;32.60;;;19.35;;
79543;SDS011;68994;47.176;7.534;2023-04-22T06:30:24;26.67;;;16.90;;
79543;SDS011;68994;47.176;7.534;2023-04-22T06:32:53;29.63;;;17.63;;
79543;SDS011;68994;47.176;7.534;2023-04-22T06:35:20;33.97;;;15.80;;
79543;SDS011;68994;47.176;7.534;2023-04-22T06:37:47;26.25;;;15.32;;
79543;SDS011;68994;47.176;7.534;2023-04-22T06:40:13;35.35;;;18.88;;
79543;SDS011;68994;47.176;7.534;2023-04-22T06:42:40;28.17;;;17.33;;
79543;SDS011;68994;47.176;7.534;2023-04-22T06:45:07;33.92;;;21.17;;
79543;SDS011;68994;47.176;7.534;2023-04-22T06:47:36;27.70;;;19.25;;
79543;SDS011;68994;47.176;7.534;2023-04-22T06:50:05;33.67;;;23.02;;
79543;SDS011;68994;47.176;7.534;2023-04-22T06:52:32;30.75;;;20.63;;
79543;SDS011;68994;47.176;7.534;2023-04-22T06:54:59;28.52;;;18.80;;
79543;SDS011;68994;47.176;7.534;2023-04-22T06:57:27;24.92;;;16.35;;
79543;SDS011;68994;47.176;7.534;2023-04-22T06:59:53;27.38;;;15.93;;
79543;SDS011;68994;47.176;7.534;2023-04-22T07:02:20;25.58;;;18.10;;
79543;SDS011;68994;47.176;7.534;2023-04-22T07:04:47;30.27;;;16.27;;
79543;SDS011;68994;47.176;7.534;2023-04-22T07:07:15;31.42;;;19.02;;
79543;SDS011;68994;47.176;7.534;2023-04-22T07:09:42;26.65;;;15.48;;
79543;SDS011;68994;47.176;7.534;2023-04-22T07:12:08;33.95;;;17.45;;
79543;SDS011;68994;47.176;7.534;2023-04-22T07:14:35;27.65;;;19.08;;
79543;SDS011;68994;47.176;7.534;2023-04-22T07:17:02;23.50;;;16.70;;
79543;SDS011;68994;47.176;7.534;2023-04-22T07:19:29;24.30;;;15.30;;
79543;SDS011;68994;47.176;7.534;2023-04-22T07:21:55;26.88;;;17.02;;
79543;SDS011;68994;47.176;7.534;2023-04-22T07:24:23;25.77;;;17.80;;
79543;SDS011;68994;47.176;7.534;2023-04-22T07:26:50;23.35;;;14.63;;
79543;SDS011;68994;47.176;7.534;2023-04-22T07:29:16;23.40;;;16.10;;
79543;SDS011;68994;47.176;7.534;2023-04-22T07:31:43;25.48;;;16.35;;
79543;SDS011;68994;47.176;7.534;2023-04-22T07:34:10;24.67;;;16.50;;
79543;SDS011;68994;47.176;7.534;2023-04-22T07:36:36;21.00;;;14.32;;
79543;SDS011;68994;47.176;7.534;2023-04-22T07:39:03;20.05;;;15.57;;
79543;SDS011;68994;47.176;7.534;2023-04-22T07:41:31;22.88;;;13.65;;
79543;SDS011;68994;47.176;7.534;2023-04-22T07:43:58;18.55;;;12.23;;
79543;SDS011;68994;47.176;7.534;2023-04-22T07:46:25;19.73;;;14.98;;
79543;SDS011;68994;47.176;7.534;2023-04-22T07:48:51;20.40;;;15.05;;
79543;SDS011;68994;47.176;7.534;2023-04-22T07:51:18;16.35;;;11.70;;
79543;SDS011;68994;47.176;7.534;2023-04-22T07:53:44;17.50;;;13.80;;
79543;SDS011;68994;47.176;7.534;2023-04-22T07:56:11;19.05;;;14.70;;
79543;SDS011;68994;47.176;7.534;2023-04-22T07:58:39;20.77;;;14.55;;
79543;SDS011;68994;47.176;7.534;2023-04-22T08:01:06;21.15;;;14.27;;
79543;SDS011;68994;47.176;7.534;2023-04-22T08:03:32;22.13;;;16.30;;
79543;SDS011;68994;47.176;7.534;2023-04-22T08:05:59;20.52;;;13.20;;
79543;SDS011;68994;47.176;7.534;2023-04-22T08:08:26;20.13;;;13.30;;
79543;SDS011;68994;47.176;7.534;2023-04-22T08:10:52;16.65;;;12.63;;
79543;SDS011;68994;47.176;7.534;2023-04-22T08:13:19;16.92;;;12.38;;
79543;SDS011;68994;47.176;7.534;2023-04-22T08:15:47;18.17;;;11.23;;
79543;SDS011;68994;47.176;7.534;2023-04-22T08:20:40;15.82;;;10.95;;
79543;SDS011;68994;47.176;7.534;2023-04-22T08:23:07;17.63;;;12.82;;
79543;SDS011;68994;47.176;7.534;2023-04-22T08:25:34;18.23;;;12.07;;
79543;SDS011;68994;47.176;7.534;2023-04-22T08:28:01;17.27;;;11.55;;
79543;SDS011;68994;47.176;7.534;2023-04-22T08:30:28;18.75;;;13.90;;
79543;SDS011;68994;47.176;7.534;2023-04-22T08:32:56;15.23;;;12.63;;
79543;SDS011;68994;47.176;7.534;2023-04-22T08:35:23;15.35;;;13.75;;
79543;SDS011;68994;47.176;7.534;2023-04-22T08:37:50;13.85;;;9.40;;
79543;SDS011;68994;47.176;7.534;2023-04-22T08:40:16;13.52;;;9.88;;
79543;SDS011;68994;47.176;7.534;2023-04-22T08:42:43;14.35;;;11.45;;
79543;SDS011;68994;47.176;7.534;2023-04-22T08:45:10;17.25;;;13.07;;
79543;SDS011;68994;47.176;7.534;2023-04-22T08:47:38;12.68;;;9.10;;
79543;SDS011;68994;47.176;7.534;2023-04-22T08:50:08;14.95;;;11.27;;
79543;SDS011;68994;47.176;7.534;2023-04-22T08:52:35;15.15;;;11.98;;
79543;SDS011;68994;47.176;7.534;2023-04-22T08:55:02;15.40;;;11.93;;
79543;SDS011;68994;47.176;7.534;2023-04-22T08:57:30;13.07;;;10.68;;
79543;SDS011;68994;47.176;7.534;2023-04-22T08:59:57;13.07;;;10.98;;
79543;SDS011;68994;47.176;7.534;2023-04-22T09:02:24;12.82;;;10.60;;
79543;SDS011;68994;47.176;7.534;2023-04-22T09:04:52;12.55;;;8.70;;
79543;SDS011;68994;47.176;7.534;2023-04-22T09:07:21;12.70;;;10.15;;
79543;SDS011;68994;47.176;7.534;2023-04-22T09:09:49;14.13;;;8.20;;
79543;SDS011;68994;47.176;7.534;2023-04-22T09:12:16;13.98;;;9.43;;
79543;SDS011;68994;47.176;7.534;2023-04-22T09:14:43;12.25;;;10.20;;
79543;SDS011;68994;47.176;7.534;2023-04-22T09:17:10;12.75;;;11.18;;
79543;SDS011;68994;47.176;7.534;2023-04-22T09:19:36;11.27;;;9.52;;
79543;SDS011;68994;47.176;7.534;2023-04-22T09:22:03;12.25;;;8.10;;
79543;SDS011;68994;47.176;7.534;2023-04-22T09:24:31;13.88;;;9.65;;
79543;SDS011;68994;47.176;7.534;2023-04-22T09:29:28;12.15;;;9.35;;
79543;SDS011;68994;47.176;7.534;2023-04-22T09:31:56;12.15;;;8.27;;
79543;SDS011;68994;47.176;7.534;2023-04-22T09:34:22;12.77;;;9.60;;
79543;SDS011;68994;47.176;7.534;2023-04-22T09:36:49;11.77;;;10.20;;
79543;SDS011;68994;47.176;7.534;2023-04-22T09:39:16;11.57;;;10.32;;
79543;SDS011;68994;47.176;7.534;2023-04-22T09:41:44;11.18;;;9.63;;
79543;SDS011;68994;47.176;7.534;2023-04-22T09:44:20;11.68;;;9.40;;
79543;SDS011;68994;47.176;7.534;2023-04-22T09:46:48;11.07;;;8.48;;
79543;SDS011;68994;47.176;7.534;2023-04-22T09:49:15;11.23;;;8.50;;
79543;SDS011;68994;47.176;7.534;2023-04-22T09:51:42;8.98;;;6.93;;
79543;SDS011;68994;47.176;7.534;2023-04-22T09:54:09;7.00;;;6.13;;
79543;SDS011;68994;47.176;7.534;2023-04-22T09:56:39;7.68;;;6.97;;
79543;SDS011;68994;47.176;7.534;2023-04-22T09:59:13;7.50;;;6.78;;
79543;SDS011;68994;47.176;7.534;2023-04-22T10:01:41;8.23;;;6.88;;
79543;SDS011;68994;47.176;7.534;2023-04-22T10:04:08;7.72;;;6.88;;
79543;SDS011;68994;47.176;7.534;2023-04-22T10:06:36;7.85;;;6.60;;
79543;SDS011;68994;47.176;7.534;2023-04-22T10:09:03;8.55;;;7.22;;
79543;SDS011;68994;47.176;7.534;2023-04-22T10:11:30;8.38;;;6.43;;
79543;SDS011;68994;47.176;7.534;2023-04-22T10:13:58;8.90;;;7.95;;
79543;SDS011;68994;47.176;7.534;2023-04-22T10:16:25;7.82;;;5.93;;
79543;SDS011;68994;47.176;7.534;2023-04-22T10:18:53;9.60;;;7.70;;
79543;SDS011;68994;47.176;7.534;2023-04-22T10:21:21;10.27;;;7.90;;
79543;SDS011;68994;47.176;7.534;2023-04-22T10:23:50;8.98;;;5.55;;
79543;SDS011;68994;47.176;7.534;2023-04-22T10:29:06;8.68;;;7.25;;
79543;SDS011;68994;47.176;7.534;2023-04-22T10:31:33;8.60;;;6.95;;
79543;SDS011;68994;47.176;7.534;2023-04-22T10:34:07;6.93;;;4.82;;
79543;SDS011;68994;47.176;7.534;2023-04-22T10:36:39;6.45;;;5.20;;
79543;SDS011;68994;47.176;7.534;2023-04-22T10:39:18;6.05;;;3.95;;
79543;SDS011;68994;47.176;7.534;2023-04-22T10:41:49;7.65;;;5.78;;
79543;SDS011;68994;47.176;7.534;2023-04-22T10:44:19;5.80;;;4.95;;
79543;SDS011;68994;47.176;7.534;2023-04-22T10:46:59;6.75;;;5.70;;
79543;SDS011;68994;47.176;7.534;2023-04-22T10:49:28;6.65;;;5.63;;
79543;SDS011;68994;47.176;7.534;2023-04-22T10:51:56;5.38;;;4.15;;
79543;SDS011;68994;47.176;7.534;2023-04-22T10:57:12;5.97;;;5.38;;
79543;SDS011;68994;47.176;7.534;2023-04-22T10:59:42;5.35;;;4.50;;
79543;SDS011;68994;47.176;7.534;2023-04-22T11:02:12;4.78;;;4.05;;
79543;SDS011;68994;47.176;7.534;2023-04-22T11:04:39;6.10;;;4.35;;
79543;SDS011;68994;47.176;7.534;2023-04-22T11:07:13;5.82;;;4.85;;
79543;SDS011;68994;47.176;7.534;2023-04-22T11:09:42;5.88;;;5.07;;
79543;SDS011;68994;47.176;7.534;2023-04-22T11:15:08;4.13;;;3.30;;
79543;SDS011;68994;47.176;7.534;2023-04-22T11:17:37;5.28;;;4.20;;
79543;SDS011;68994;47.176;7.534;2023-04-22T11:20:05;4.90;;;4.18;;
79543;SDS011;68994;47.176;7.534;2023-04-22T11:22:33;8.88;;;4.40;;
79543;SDS011;68994;47.176;7.534;2023-04-22T11:25:01;5.32;;;4.38;;
79543;SDS011;68994;47.176;7.534;2023-04-22T11:27:29;5.28;;;4.75;;
79543;SDS011;68994;47.176;7.534;2023-04-22T11:29:59;5.32;;;4.82;;
79543;SDS011;68994;47.176;7.534;2023-04-22T11:32:27;6.15;;;4.65;;
79543;SDS011;68994;47.176;7.534;2023-04-22T11:34:54;5.70;;;5.15;;
79543;SDS011;68994;47.176;7.534;2023-04-22T11:37:21;6.05;;;5.45;;
79543;SDS011;68994;47.176;7.534;2023-04-22T11:39:48;6.18;;;4.78;;
79543;SDS011;68994;47.176;7.534;2023-04-22T11:42:17;5.22;;;4.68;;
79543;SDS011;68994;47.176;7.534;2023-04-22T11:44:46;9.13;;;5.93;;
79543;SDS011;68994;47.176;7.534;2023-04-22T11:47:12;7.63;;;5.63;;
79543;SDS011;68994;47.176;7.534;2023-04-22T11:49:40;5.25;;;4.75;;
79543;SDS011;68994;47.176;7.534;2023-04-22T11:52:07;7.43;;;6.05;;
79543;SDS011;68994;47.176;7.534;2023-04-22T11:54:34;5.82;;;5.28;;
79543;SDS011;68994;47.176;7.534;2023-04-22T11:57:02;7.20;;;5.57;;
79543;SDS011;68994;47.176;7.534;2023-04-22T11:59:30;7.07;;;5.53;;
79543;SDS011;68994;47.176;7.534;2023-04-22T12:01:57;5.93;;;4.75;;
79543;SDS011;68994;47.176;7.534;2023-04-22T12:04:23;5.60;;;4.55;;
79543;SDS011;68994;47.176;7.534;2023-04-22T12:06:51;6.53;;;5.00;;
79543;SDS011;68994;47.176;7.534;2023-04-22T12:09:18;6.82;;;5.10;;
79543;SDS011;68994;47.176;7.534;2023-04-22T12:11:44;6.68;;;5.97;;
79543;SDS011;68994;47.176;7.534;2023-04-22T12:14:11;9.13;;;5.82;;
79543;SDS011;68994;47.176;7.534;2023-04-22T12:16:38;6.70;;;5.57;;
79543;SDS011;68994;47.176;7.534;2023-04-22T12:19:06;6.90;;;4.90;;
79543;SDS011;68994;47.176;7.534;2023-04-22T12:21:33;6.40;;;5.05;;
79543;SDS011;68994;47.176;7.534;2023-04-22T12:24:02;10.57;;;7.18;;
79543;SDS011;68994;47.176;7.534;2023-04-22T12:26:34;6.57;;;5.32;;
79543;SDS011;68994;47.176;7.534;2023-04-22T12:29:02;6.82;;;5.90;;
79543;SDS011;68994;47.176;7.534;2023-04-22T12:31:28;7.50;;;5.80;;
79543;SDS011;68994;47.176;7.534;2023-04-22T12:33:55;8.65;;;7.38;;
79543;SDS011;68994;47.176;7.534;2023-04-22T12:36:22;10.20;;;6.05;;
79543;SDS011;68994;47.176;7.534;2023-04-22T12:38:49;8.10;;;7.22;;
79543;SDS011;68994;47.176;7.534;2023-04-22T12:41:17;8.18;;;5.80;;
79543;SDS011;68994;47.176;7.534;2023-04-22T12:43:43;7.35;;;6.43;;
79543;SDS011;68994;47.176;7.534;2023-04-22T12:46:10;5.82;;;5.22;;
79543;SDS011;68994;47.176;7.534;2023-04-22T12:48:37;7.22;;;6.07;;
79543;SDS011;68994;47.176;7.534;2023-04-22T12:51:03;9.77;;;6.07;;
79543;SDS011;68994;47.176;7.534;2023-04-22T12:53:30;7.28;;;5.18;;
79543;SDS011;68994;47.176;7.534;2023-04-22T12:55:57;8.02;;;5.90;;
79543;SDS011;68994;47.176;7.534;2023-04-22T12:58:25;8.30;;;5.80;;
79543;SDS011;68994;47.176;7.534;2023-04-22T13:00:52;7.07;;;6.38;;
79543;SDS011;68994;47.176;7.534;2023-04-22T13:03:18;5.97;;;5.32;;
79543;SDS011;68994;47.176;7.534;2023-04-22T13:05:45;5.82;;;3.47;;
79543;SDS011;68994;47.176;7.534;2023-04-22T13:08:11;8.35;;;5.10;;
79543;SDS011;68994;47.176;7.534;2023-04-22T13:10:38;6.15;;;4.72;;
79543;SDS011;68994;47.176;7.534;2023-04-22T13:13:05;6.32;;;5.72;;
79543;SDS011;68994;47.176;7.534;2023-04-22T13:15:33;6.20;;;5.28;;
79543;SDS011;68994;47.176;7.534;2023-04-22T13:18:01;6.93;;;5.03;;
79543;SDS011;68994;47.176;7.534;2023-04-22T13:20:27;5.88;;;5.28;;
79543;SDS011;68994;47.176;7.534;2023-04-22T13:22:54;6.72;;;5.30;;
79543;SDS011;68994;47.176;7.534;2023-04-22T13:25:21;6.32;;;5.22;;
79543;SDS011;68994;47.176;7.534;2023-04-22T13:27:47;6.45;;;5.03;;
79543;SDS011;68994;47.176;7.534;2023-04-22T13:30:14;6.00;;;4.22;;
79543;SDS011;68994;47.176;7.534;2023-04-22T13:32:42;8.00;;;5.28;;
79543;SDS011;68994;47.176;7.534;2023-04-22T13:35:08;6.57;;;3.78;;
79543;SDS011;68994;47.176;7.534;2023-04-22T13:37:35;8.93;;;4.00;;
79543;SDS011;68994;47.176;7.534;2023-04-22T13:40:02;6.05;;;5.40;;
79543;SDS011;68994;47.176;7.534;2023-04-22T13:42:30;9.38;;;6.03;;
79543;SDS011;68994;47.176;7.534;2023-04-22T13:44:56;8.25;;;5.55;;
79543;SDS011;68994;47.176;7.534;2023-04-22T13:47:23;8.32;;;5.15;;
79543;SDS011;68994;47.176;7.534;2023-04-22T13:49:51;10.90;;;5.47;;
79543;SDS011;68994;47.176;7.534;2023-04-22T13:52:17;6.35;;;5.32;;
79543;SDS011;68994;47.176;7.534;2023-04-22T13:54:44;7.93;;;6.70;;
79543;SDS011;68994;47.176;7.534;2023-04-22T13:57:10;7.85;;;5.75;;
79543;SDS011;68994;47.176;7.534;2023-04-22T13:59:37;6.80;;;5.85;;
79543;SDS011;68994;47.176;7.534;2023-04-22T14:02:03;9.35;;;5.78;;
79543;SDS011;68994;47.176;7.534;2023-04-22T14:04:30;7.45;;;5.32;;
79543;SDS011;68994;47.176;7.534;2023-04-22T14:06:59;6.95;;;6.00;;
79543;SDS011;68994;47.176;7.534;2023-04-22T14:09:26;6.90;;;6.13;;
79543;SDS011;68994;47.176;7.534;2023-04-22T14:11:52;8.77;;;6.68;;
79543;SDS011;68994;47.176;7.534;2023-04-22T14:14:19;10.73;;;6.97;;
79543;SDS011;68994;47.176;7.534;2023-04-22T14:16:46;9.40;;;6.75;;
79543;SDS011;68994;47.176;7.534;2023-04-22T14:19:12;8.80;;;6.57;;
79543;SDS011;68994;47.176;7.534;2023-04-22T14:21:39;10.32;;;7.32;;
79543;SDS011;68994;47.176;7.534;2023-04-22T14:24:07;10.02;;;6.68;;
79543;SDS011;68994;47.176;7.534;2023-04-22T14:29:00;8.55;;;5.28;;
79543;SDS011;68994;47.176;7.534;2023-04-22T14:31:26;10.20;;;6.13;;
79543;SDS011;68994;47.176;7.534;2023-04-22T14:33:53;9.38;;;6.18;;
79543;SDS011;68994;47.176;7.534;2023-04-22T14:36:20;13.20;;;8.63;;
79543;SDS011;68994;47.176;7.534;2023-04-22T14:38:46;11.00;;;8.90;;
79543;SDS011;68994;47.176;7.534;2023-04-22T14:41:14;7.80;;;7.00;;
79543;SDS011;68994;47.176;7.534;2023-04-22T14:46:07;9.32;;;7.43;;
79543;SDS011;68994;47.176;7.534;2023-04-22T14:48:34;9.38;;;7.57;;
79543;SDS011;68994;47.176;7.534;2023-04-22T14:51:03;9.18;;;7.25;;
79543;SDS011;68994;47.176;7.534;2023-04-22T14:53:30;10.60;;;8.07;;